createdAt,value
2023-02-25T00:00:17.788Z,99.90
2023-02-25T00:02:45.769Z,99.90
2023-02-25T00:05:17.348Z,99.90
2023-02-25T00:07:45.442Z,99.90
2023-02-25T00:10:17.791Z,97.00
2023-02-25T00:12:45.699Z,98.10
2023-02-25T00:15:22.311Z,99.90
2023-02-25T00:17:53.056Z,97.50
2023-02-25T00:20:22.393Z,99.90
2023-02-25T00:22:50.292Z,99.90
2023-02-25T00:25:25.438Z,99.90
2023-02-25T00:27:53.308Z,99.20
2023-02-25T00:30:21.486Z,99.90
2023-02-25T00:32:50.430Z,99.90
2023-02-25T00:35:24.437Z,99.90
2023-02-25T00:37:59.173Z,99.30
2023-02-25T00:40:33.247Z,99.30
2023-02-25T00:43:01.101Z,99.20
2023-02-25T00:45:29.068Z,99.90
2023-02-25T00:48:00.265Z,98.60
2023-02-25T00:50:31.134Z,99.00
2023-02-25T00:52:59.023Z,99.70
2023-02-25T00:55:33.416Z,99.90
2023-02-25T00:58:06.124Z,99.90
2023-02-25T01:00:51.347Z,96.60
2023-02-25T01:03:22.817Z,98.70
2023-02-25T01:05:53.488Z,98.40
2023-02-25T01:08:22.022Z,94.30
2023-02-25T01:10:53.604Z,94.10
2023-02-25T01:13:36.343Z,98.50
2023-02-25T01:16:20.484Z,99.90
2023-02-25T01:18:54.564Z,97.50
2023-02-25T01:21:27.135Z,97.10
2023-02-25T01:24:05.953Z,99.90
2023-02-25T01:26:36.703Z,99.90
2023-02-25T01:29:09.535Z,99.00
2023-02-25T01:31:40.855Z,98.10
2023-02-25T01:34:11.561Z,99.80
2023-02-25T01:36:39.403Z,99.90
2023-02-25T01:39:09.715Z,99.70
2023-02-25T01:41:39.408Z,98.60
2023-02-25T01:44:13.309Z,97.40
2023-02-25T01:46:46.101Z,97.60
2023-02-25T01:49:17.513Z,97.90
2023-02-25T01:51:50.106Z,99.90
2023-02-25T01:54:18.781Z,98.90
2023-02-25T01:56:55.764Z,99.30
2023-02-25T01:59:28.596Z,98.60
2023-02-25T02:02:02.783Z,97.60
2023-02-25T02:04:32.606Z,98.30
2023-02-25T02:07:01.284Z,99.00
2023-02-25T02:09:31.990Z,98.80
2023-02-25T02:12:07.829Z,99.10
2023-02-25T02:14:52.123Z,98.00
2023-02-25T02:17:30.131Z,97.00
2023-02-25T02:20:14.032Z,98.90
2023-02-25T02:22:54.107Z,99.90
2023-02-25T02:26:02.557Z,98.00
2023-02-25T02:29:23.785Z,95.50
2023-02-25T02:32:00.225Z,97.20
2023-02-25T02:34:43.219Z,99.40
2023-02-25T02:37:35.033Z,99.90
2023-02-25T02:40:15.763Z,99.90
2023-02-25T02:42:54.163Z,99.90
2023-02-25T02:45:26.919Z,98.20
2023-02-25T02:48:02.927Z,98.90
2023-02-25T02:50:34.973Z,97.70
2023-02-25T02:53:07.859Z,97.70
2023-02-25T02:55:41.516Z,98.20
2023-02-25T02:58:16.710Z,99.90
2023-02-25T03:00:57.868Z,99.90
2023-02-25T03:03:37.123Z,99.10
2023-02-25T03:06:08.913Z,99.80
2023-02-25T03:08:44.549Z,97.30
2023-02-25T03:11:13.029Z,99.90
2023-02-25T03:13:44.069Z,99.90
2023-02-25T03:16:15.796Z,99.80
2023-02-25T03:18:52.944Z,99.90
2023-02-25T03:21:26.751Z,99.90
2023-02-25T03:24:02.954Z,99.90
2023-02-25T03:26:34.941Z,99.90
2023-02-25T03:29:03.256Z,99.90
2023-02-25T03:31:35.998Z,98.40
2023-02-25T03:34:11.255Z,96.40
2023-02-25T03:36:45.802Z,95.90
2023-02-25T03:39:21.414Z,99.90
2023-02-25T03:41:54.409Z,97.40
2023-02-25T03:44:42.299Z,97.30
2023-02-25T03:47:11.821Z,99.90
2023-02-25T03:49:47.256Z,99.60
2023-02-25T03:52:21.124Z,99.90
2023-02-25T03:54:52.403Z,99.90
2023-02-25T03:57:20.921Z,98.70
2023-02-25T03:59:48.989Z,99.90
2023-02-25T04:02:17.488Z,99.40
2023-02-25T04:04:52.559Z,99.90
2023-02-25T04:07:29.971Z,99.40
2023-02-25T04:10:00.735Z,99.90
2023-02-25T04:12:29.279Z,99.90
2023-02-25T04:14:59.998Z,96.60
2023-02-25T04:17:30.766Z,96.90
2023-02-25T04:19:59.995Z,99.90
2023-02-25T04:22:30.578Z,99.90
2023-02-25T04:25:08.028Z,97.90
2023-02-25T04:27:40.014Z,98.50
2023-02-25T04:30:15.719Z,98.80
2023-02-25T04:32:46.278Z,99.90
2023-02-25T04:35:18.162Z,99.90
2023-02-25T04:37:46.032Z,99.10
2023-02-25T04:40:23.202Z,98.90
2023-02-25T04:42:53.772Z,98.90
2023-02-25T04:45:26.934Z,99.90
2023-02-25T04:48:03.912Z,97.10
2023-02-25T04:50:33.120Z,93.30
2023-02-25T04:53:02.160Z,98.50
2023-02-25T04:55:30.283Z,97.80
2023-02-25T04:58:00.461Z,99.90
2023-02-25T05:00:56.168Z,99.90
2023-02-25T05:03:32.792Z,99.90
2023-02-25T05:06:02.472Z,98.00
2023-02-25T05:08:33.006Z,97.30
2023-02-25T05:11:12.652Z,98.60
2023-02-25T05:13:40.509Z,99.90
2023-02-25T05:16:12.851Z,99.30
2023-02-25T05:18:42.094Z,99.90
2023-02-25T05:21:12.325Z,99.30
2023-02-25T05:23:43.907Z,99.40
2023-02-25T05:26:13.187Z,99.90
2023-02-25T05:28:43.844Z,98.20
2023-02-25T05:31:13.360Z,98.70
2023-02-25T05:33:41.658Z,99.30
2023-02-25T05:36:12.649Z,99.90
2023-02-25T05:38:50.104Z,99.90
2023-02-25T05:41:20.981Z,98.40
2023-02-25T05:43:49.053Z,99.50
2023-02-25T05:46:20.110Z,96.20
2023-02-25T05:48:48.834Z,99.90
2023-02-25T05:51:20.185Z,96.90
2023-02-25T05:53:51.502Z,96.30
2023-02-25T05:56:25.244Z,99.40
2023-02-25T05:58:59.504Z,99.90
2023-02-25T06:01:31.475Z,99.90
2023-02-25T06:04:00.229Z,95.20
2023-02-25T06:06:50.139Z,99.10
2023-02-25T06:09:22.041Z,99.60
2023-02-25T06:11:50.389Z,98.90
2023-02-25T06:14:21.624Z,95.40
2023-02-25T06:16:50.641Z,99.20
2023-02-25T06:19:18.603Z,98.60
2023-02-25T06:21:57.165Z,96.00
2023-02-25T06:24:25.634Z,93.50
2023-02-25T06:26:55.678Z,99.90
2023-02-25T06:29:24.327Z,96.50
2023-02-25T06:31:54.836Z,98.70
2023-02-25T06:34:22.855Z,99.40
2023-02-25T06:36:53.992Z,98.80
2023-02-25T06:39:25.516Z,99.50
2023-02-25T06:41:53.398Z,96.50
2023-02-25T06:44:21.326Z,99.30
2023-02-25T06:46:51.265Z,99.20
2023-02-25T06:49:22.773Z,96.50
2023-02-25T06:51:51.094Z,99.10
2023-02-25T06:54:23.093Z,99.90
2023-02-25T06:56:53.205Z,97.40
2023-02-25T06:59:21.219Z,99.80
2023-02-25T07:01:49.122Z,99.60
2023-02-25T07:04:18.387Z,95.90
2023-02-25T07:06:49.143Z,97.50
2023-02-25T07:09:19.885Z,93.30
2023-02-25T07:11:49.082Z,93.10
2023-02-25T07:14:16.988Z,99.50
2023-02-25T07:16:44.836Z,98.00
2023-02-25T07:19:16.481Z,94.20
2023-02-25T07:21:45.327Z,94.70
2023-02-25T07:24:13.990Z,99.90
2023-02-25T07:26:49.257Z,95.60
2023-02-25T07:29:17.366Z,92.30
2023-02-25T07:31:45.913Z,94.10
2023-02-25T07:34:16.621Z,93.50
2023-02-25T07:36:44.493Z,95.50
2023-02-25T07:39:15.364Z,93.70
2023-02-25T07:41:45.972Z,94.40
2023-02-25T07:44:36.188Z,97.10
2023-02-25T07:47:06.414Z,93.90
2023-02-25T07:49:37.339Z,98.30
2023-02-25T07:52:05.181Z,95.30
2023-02-25T07:54:33.046Z,96.40
2023-02-25T07:57:00.925Z,96.80
2023-02-25T07:59:28.866Z,94.50
2023-02-25T08:01:58.091Z,95.60
2023-02-25T08:04:26.117Z,96.40
2023-02-25T08:06:54.183Z,95.30
2023-02-25T08:09:22.034Z,97.40
2023-02-25T08:11:52.851Z,97.20
2023-02-25T08:14:21.580Z,96.20
2023-02-25T08:16:56.291Z,95.80
2023-02-25T08:19:25.516Z,95.80
2023-02-25T08:21:54.806Z,98.60
2023-02-25T08:24:23.067Z,99.90
2023-02-25T08:26:54.743Z,99.10
2023-02-25T08:29:25.566Z,99.00
2023-02-25T08:31:53.708Z,98.40
2023-02-25T08:34:26.020Z,99.60
2023-02-25T08:36:53.920Z,96.90
2023-02-25T08:39:23.976Z,95.90
2023-02-25T08:41:51.857Z,96.90
2023-02-25T08:44:20.652Z,96.20
2023-02-25T08:47:00.612Z,95.70
2023-02-25T08:49:35.304Z,95.40
2023-02-25T08:52:03.190Z,96.10
2023-02-25T08:54:32.961Z,97.80
2023-02-25T08:57:03.982Z,97.60
2023-02-25T08:59:35.819Z,96.10
2023-02-25T09:02:03.839Z,96.10
2023-02-25T09:04:36.296Z,99.60
2023-02-25T09:07:04.562Z,96.80
2023-02-25T09:09:33.517Z,98.70
2023-02-25T09:12:05.223Z,95.10
2023-02-25T09:14:36.139Z,95.60
2023-02-25T09:17:04.618Z,96.30
2023-02-25T09:19:33.096Z,97.10
2023-02-25T09:22:05.757Z,97.40
2023-02-25T09:24:34.389Z,98.90
2023-02-25T09:27:07.820Z,99.90
2023-02-25T09:29:42.287Z,99.90
2023-02-25T09:32:18.834Z,99.90
2023-02-25T09:34:50.257Z,99.90
2023-02-25T09:37:20.638Z,99.90
2023-02-25T09:39:54.527Z,99.30
2023-02-25T09:42:45.403Z,98.20
2023-02-25T09:45:25.903Z,98.40
2023-02-25T09:47:58.573Z,99.20
2023-02-25T09:50:38.130Z,99.40
2023-02-25T09:53:21.241Z,99.80
2023-02-25T09:55:51.507Z,99.90
2023-02-25T09:58:27.658Z,98.60
2023-02-25T10:01:06.463Z,98.50
2023-02-25T10:03:47.441Z,98.70
2023-02-25T10:06:28.075Z,98.60
2023-02-25T10:09:07.734Z,98.20
2023-02-25T10:11:46.632Z,99.60
2023-02-25T10:14:48.443Z,99.10
2023-02-25T10:17:27.333Z,99.60
2023-02-25T10:20:18.252Z,99.90
2023-02-25T10:22:59.552Z,99.90
2023-02-25T10:25:32.398Z,99.90
2023-02-25T10:28:07.413Z,99.90
2023-02-25T10:30:50.518Z,99.90
2023-02-25T10:33:21.732Z,99.90
2023-02-25T10:36:20.123Z,99.90
2023-02-25T10:38:52.015Z,99.90
2023-02-25T10:41:26.668Z,99.90
2023-02-25T10:44:00.130Z,99.90
2023-02-25T10:46:34.816Z,99.30
2023-02-25T10:49:22.961Z,97.60
2023-02-25T10:52:23.803Z,98.10
2023-02-25T10:54:54.538Z,97.10
2023-02-25T10:57:28.624Z,97.30
2023-02-25T11:00:02.520Z,97.20
2023-02-25T11:02:33.989Z,97.40
2023-02-25T11:05:08.341Z,96.90
2023-02-25T11:07:42.705Z,97.20
2023-02-25T11:10:16.669Z,98.60
2023-02-25T11:12:47.411Z,97.80
2023-02-25T11:15:43.547Z,95.90
2023-02-25T11:18:21.646Z,96.10
2023-02-25T11:20:52.942Z,96.00
2023-02-25T11:23:24.866Z,96.30
2023-02-25T11:25:53.865Z,97.70
2023-02-25T11:28:36.731Z,97.70
2023-02-25T11:31:12.965Z,96.60
2023-02-25T11:33:44.957Z,95.00
2023-02-25T11:36:25.280Z,95.40
2023-02-25T11:39:07.801Z,94.60
2023-02-25T11:41:38.883Z,93.90
2023-02-25T11:44:28.836Z,93.40
2023-02-25T11:47:08.956Z,94.80
2023-02-25T11:50:16.628Z,93.00
2023-02-25T11:52:47.718Z,92.80
2023-02-25T11:55:43.147Z,93.80
2023-02-25T11:58:24.890Z,93.10
2023-02-25T12:01:00.095Z,93.40
2023-02-25T12:03:59.652Z,93.50
2023-02-25T12:06:42.243Z,93.30
2023-02-25T12:09:51.592Z,93.00
2023-02-25T12:12:39.487Z,92.00
2023-02-25T12:16:08.163Z,89.50
2023-02-25T12:19:21.369Z,90.40
2023-02-25T12:22:27.633Z,87.90
2023-02-25T12:25:12.224Z,86.70
2023-02-25T12:27:57.830Z,85.50
2023-02-25T12:30:56.757Z,85.20
2023-02-25T12:33:54.378Z,82.90
2023-02-25T12:36:47.782Z,82.40
2023-02-25T12:39:48.980Z,84.30
2023-02-25T12:42:34.964Z,81.80
2023-02-25T12:45:25.529Z,84.20
2023-02-25T12:48:07.403Z,81.60
2023-02-25T12:50:58.448Z,78.70
2023-02-25T12:53:37.062Z,81.60
2023-02-25T12:56:53.231Z,80.80
2023-02-25T12:59:50.187Z,82.10
2023-02-25T13:02:38.963Z,82.90
2023-02-25T13:05:41.880Z,82.60
2023-02-25T13:08:55.840Z,80.60
2023-02-25T13:11:42.181Z,82.80
2023-02-25T13:14:47.794Z,79.90
2023-02-25T13:18:00.281Z,79.10
2023-02-25T13:21:14.006Z,81.00
2023-02-25T13:23:58.868Z,80.50
2023-02-25T13:26:39.603Z,79.60
2023-02-25T13:29:26.462Z,77.50
2023-02-25T13:32:04.700Z,77.30
2023-02-25T13:34:42.318Z,74.70
2023-02-25T13:37:41.035Z,77.20
2023-02-25T13:40:34.915Z,79.20
2023-02-25T13:43:29.239Z,76.50
2023-02-25T13:46:39.373Z,75.80
2023-02-25T13:49:41.921Z,74.50
2023-02-25T13:52:40.616Z,70.00
2023-02-25T13:55:38.747Z,70.00
2023-02-25T13:58:43.637Z,71.20
2023-02-25T14:01:37.549Z,68.60
2023-02-25T14:04:47.781Z,68.70
2023-02-25T14:07:41.749Z,69.90
2023-02-25T14:10:43.228Z,69.40
2023-02-25T14:13:33.980Z,71.00
2023-02-25T14:16:22.236Z,69.60
2023-02-25T14:19:23.783Z,69.80
2023-02-25T14:22:21.191Z,69.60
2023-02-25T14:25:00.738Z,70.00
2023-02-25T14:27:36.883Z,71.50
2023-02-25T14:30:21.714Z,71.00
2023-02-25T14:33:39.451Z,69.30
2023-02-25T14:36:44.362Z,67.00
2023-02-25T14:39:34.560Z,64.30
2023-02-25T14:42:15.884Z,65.20
2023-02-25T14:44:50.026Z,66.20
2023-02-25T14:47:23.533Z,67.60
2023-02-25T14:50:10.354Z,68.90
2023-02-25T14:52:50.614Z,70.20
2023-02-25T14:55:58.613Z,70.80
2023-02-25T14:58:51.878Z,69.50
2023-02-25T15:02:03.057Z,72.70
2023-02-25T15:05:19.112Z,70.60
2023-02-25T15:08:17.728Z,68.40
2023-02-25T15:11:22.628Z,67.90
2023-02-25T15:14:39.622Z,68.00
2023-02-25T15:17:40.036Z,68.80
2023-02-25T15:20:24.235Z,70.20
2023-02-25T15:23:07.221Z,69.90
2023-02-25T15:25:53.789Z,69.70
2023-02-25T15:28:43.125Z,71.30
2023-02-25T15:31:39.023Z,71.60
2023-02-25T15:34:42.410Z,71.00
2023-02-25T15:37:37.137Z,69.30
2023-02-25T15:40:53.240Z,69.10
2023-02-25T15:43:42.402Z,69.50
2023-02-25T15:46:45.781Z,67.60
2023-02-25T15:49:35.788Z,67.30
2023-02-25T15:52:32.796Z,67.40
2023-02-25T15:55:20.070Z,67.20
2023-02-25T15:57:48.411Z,67.50
2023-02-25T16:00:59.094Z,68.10
2023-02-25T16:03:46.649Z,68.20
2023-02-25T16:06:21.181Z,68.30
2023-02-25T16:08:56.298Z,66.10
2023-02-25T16:11:38.541Z,65.10
2023-02-25T16:14:16.436Z,67.00
2023-02-25T16:16:53.225Z,66.20
2023-02-25T16:19:28.457Z,65.80
2023-02-25T16:22:02.310Z,66.70
2023-02-25T16:24:30.994Z,65.80
2023-02-25T16:27:02.426Z,66.20
2023-02-25T16:29:54.537Z,67.60
2023-02-25T16:32:37.355Z,69.00
2023-02-25T16:35:13.659Z,69.80
2023-02-25T16:37:48.526Z,69.90
2023-02-25T16:40:28.492Z,68.20
2023-02-25T16:42:59.007Z,67.00
2023-02-25T16:45:42.503Z,66.80
2023-02-25T16:48:17.565Z,68.40
2023-02-25T16:50:51.238Z,67.90
2023-02-25T16:53:22.371Z,67.80
2023-02-25T16:55:51.424Z,67.90
2023-02-25T16:58:25.596Z,67.90
2023-02-25T17:00:55.325Z,67.70
2023-02-25T17:03:27.569Z,68.10
2023-02-25T17:06:08.466Z,69.10
2023-02-25T17:08:45.584Z,68.80
2023-02-25T17:11:19.032Z,67.60
2023-02-25T17:13:49.518Z,68.80
2023-02-25T17:16:28.369Z,68.50
2023-02-25T17:19:17.629Z,69.60
2023-02-25T17:21:55.991Z,69.10
2023-02-25T17:24:33.370Z,69.30
2023-02-25T17:27:01.953Z,69.20
2023-02-25T17:29:37.638Z,70.70
2023-02-25T17:35:09.076Z,69.10
2023-02-25T17:37:38.438Z,69.60
2023-02-25T17:40:10.673Z,69.60
2023-02-25T17:42:39.871Z,69.90
2023-02-25T17:45:44.692Z,72.60
2023-02-25T17:48:23.907Z,74.30
2023-02-25T17:50:58.830Z,69.50
2023-02-25T17:53:58.610Z,70.10
2023-02-25T17:56:29.586Z,70.10
2023-02-25T17:59:02.410Z,70.00
2023-02-25T18:01:47.095Z,70.90
2023-02-25T18:04:25.341Z,72.10
2023-02-25T18:06:56.125Z,70.90
2023-02-25T18:09:40.873Z,71.80
2023-02-25T18:12:27.052Z,72.60
2023-02-25T18:15:00.474Z,74.10
2023-02-25T18:17:33.099Z,75.60
2023-02-25T18:20:03.574Z,74.70
2023-02-25T18:22:40.540Z,73.20
2023-02-25T18:25:31.478Z,73.00
2023-02-25T18:28:01.497Z,73.00
2023-02-25T18:30:31.268Z,73.60
2023-02-25T18:33:05.461Z,73.20
2023-02-25T18:35:42.974Z,74.70
2023-02-25T18:38:18.756Z,73.70
2023-02-25T18:40:52.904Z,73.50
2023-02-25T18:43:39.180Z,78.30
2023-02-25T18:46:07.092Z,74.10
2023-02-25T18:48:35.308Z,73.70
2023-02-25T18:51:11.223Z,74.20
2023-02-25T18:53:48.060Z,77.10
2023-02-25T18:56:48.848Z,74.10
2023-02-25T18:59:16.712Z,74.60
2023-02-25T19:01:45.406Z,78.10
2023-02-25T19:04:20.420Z,74.90
2023-02-25T19:06:51.060Z,74.90
2023-02-25T19:09:25.156Z,74.00
2023-02-25T19:11:56.645Z,74.30
2023-02-25T19:14:26.665Z,74.60
2023-02-25T19:16:54.609Z,77.10
2023-02-25T19:19:29.796Z,77.00
2023-02-25T19:22:03.526Z,74.90
2023-02-25T19:24:31.372Z,75.10
2023-02-25T19:27:01.696Z,75.30
2023-02-25T19:29:29.584Z,75.30
2023-02-25T19:31:57.563Z,83.40
2023-02-25T19:34:28.249Z,86.20
2023-02-25T19:36:56.127Z,80.10
2023-02-25T19:39:29.862Z,76.80
2023-02-25T19:42:00.108Z,76.60
2023-02-25T19:44:32.751Z,76.00
2023-02-25T19:47:06.292Z,82.00
2023-02-25T19:49:36.970Z,79.80
2023-02-25T19:52:05.096Z,76.40
2023-02-25T19:54:39.290Z,75.00
2023-02-25T19:57:20.017Z,75.50
2023-02-25T19:59:55.486Z,75.60
2023-02-25T20:02:31.534Z,78.90
2023-02-25T20:05:07.071Z,82.20
2023-02-25T20:07:37.167Z,75.80
2023-02-25T20:10:13.112Z,73.90
2023-02-25T20:12:47.642Z,75.10
2023-02-25T20:15:24.580Z,77.40
2023-02-25T20:17:58.928Z,79.90
2023-02-25T20:20:26.800Z,81.90
2023-02-25T20:23:00.658Z,79.90
2023-02-25T20:25:34.676Z,74.60
2023-02-25T20:28:02.557Z,73.70
2023-02-25T20:30:37.217Z,77.30
2023-02-25T20:33:13.805Z,77.00
2023-02-25T20:35:48.866Z,84.30
2023-02-25T20:38:38.776Z,80.80
2023-02-25T20:41:07.156Z,79.80
2023-02-25T20:43:54.675Z,76.90
2023-02-25T20:46:43.677Z,76.80
2023-02-25T20:49:14.744Z,77.20
2023-02-25T20:51:44.778Z,82.50
2023-02-25T20:54:13.974Z,78.40
2023-02-25T20:56:52.881Z,74.80
2023-02-25T20:59:23.585Z,75.60
2023-02-25T21:01:52.801Z,72.90
2023-02-25T21:04:20.718Z,78.90
2023-02-25T21:06:57.434Z,77.90
2023-02-25T21:09:25.483Z,73.80
2023-02-25T21:11:53.326Z,73.20
2023-02-25T21:14:21.312Z,75.10
2023-02-25T21:16:56.771Z,75.10
2023-02-25T21:19:38.450Z,77.30
2023-02-25T21:22:10.066Z,76.80
2023-02-25T21:24:40.960Z,78.80
2023-02-25T21:27:08.828Z,78.70
2023-02-25T21:29:38.861Z,79.80
2023-02-25T21:32:13.756Z,81.60
2023-02-25T21:34:49.203Z,82.10
2023-02-25T21:37:22.286Z,82.40
2023-02-25T21:39:55.841Z,83.40
2023-02-25T21:42:23.814Z,84.00
2023-02-25T21:44:51.865Z,86.00
2023-02-25T21:47:23.638Z,86.30
2023-02-25T21:49:54.495Z,83.30
2023-02-25T21:52:22.745Z,82.80
2023-02-25T21:54:59.927Z,84.20
2023-02-25T21:57:27.855Z,88.30
2023-02-25T22:00:14.134Z,83.00
2023-02-25T22:02:43.434Z,83.10
2023-02-25T22:05:13.845Z,83.10
2023-02-25T22:07:41.704Z,86.40
2023-02-25T22:10:13.182Z,83.90
2023-02-25T22:12:46.970Z,84.40
2023-02-25T22:15:23.862Z,86.70
2023-02-25T22:17:56.866Z,82.60
2023-02-25T22:20:31.026Z,83.10
2023-02-25T22:23:05.057Z,81.50
2023-02-25T22:25:33.322Z,80.10
2023-02-25T22:28:07.354Z,85.90
2023-02-25T22:30:38.159Z,88.90
2023-02-25T22:33:14.827Z,84.70
2023-02-25T22:35:54.674Z,82.90
2023-02-25T22:38:22.558Z,87.50
2023-02-25T22:40:52.988Z,90.60
2023-02-25T22:43:20.881Z,83.80
2023-02-25T22:45:51.320Z,80.10
2023-02-25T22:48:29.672Z,80.00
2023-02-25T22:51:02.293Z,81.70
2023-02-25T22:53:30.244Z,79.10
2023-02-25T22:56:02.372Z,79.10
2023-02-25T22:58:30.910Z,79.90
2023-02-25T23:00:58.979Z,83.70
2023-02-25T23:03:27.496Z,82.60
2023-02-25T23:05:56.936Z,81.40
2023-02-25T23:08:28.316Z,81.90
2023-02-25T23:10:56.163Z,83.00
2023-02-25T23:13:26.825Z,83.20
2023-02-25T23:16:04.481Z,85.30
2023-02-25T23:18:33.464Z,83.20
2023-02-25T23:21:07.701Z,85.00
2023-02-25T23:23:39.180Z,84.90
2023-02-25T23:26:08.402Z,86.00
2023-02-25T23:28:41.388Z,86.00
2023-02-25T23:31:19.585Z,83.80
2023-02-25T23:33:48.188Z,84.20
2023-02-25T23:36:17.425Z,88.00
2023-02-25T23:38:45.337Z,85.70
2023-02-25T23:41:16.218Z,84.50
2023-02-25T23:43:44.061Z,85.10
2023-02-25T23:46:11.976Z,88.30
2023-02-25T23:48:39.841Z,87.60
2023-02-25T23:51:10.769Z,86.30
2023-02-25T23:53:42.577Z,86.10
2023-02-25T23:56:15.266Z,85.60
2023-02-25T23:58:43.135Z,86.60
